sensor_id;sensor_type;location;lat;lon;timestamp;P1;durP1;ratioP1;P2;durP2;ratioP2
9124;SDS011;4597;48.730;9.114;2023-07-31T00:02:09;1.60;;;1.50;;
9124;SDS011;4597;48.730;9.114;2023-07-31T00:04:35;1.93;;;1.77;;
9124;SDS011;4597;48.730;9.114;2023-07-31T00:07:00;1.30;;;1.20;;
9124;SDS011;4597;48.730;9.114;2023-07-31T00:09:29;1.33;;;1.23;;
9124;SDS011;4597;48.730;9.114;2023-07-31T00:11:54;2.03;;;1.40;;
9124;SDS011;4597;48.730;9.114;2023-07-31T00:14:20;1.60;;;1.50;;
9124;SDS011;4597;48.730;9.114;2023-07-31T00:16:45;2.97;;;1.70;;
9124;SDS011;4597;48.730;9.114;2023-07-31T00:19:11;1.60;;;1.50;;
9124;SDS011;4597;48.730;9.114;2023-07-31T00:21:36;2.07;;;1.60;;
9124;SDS011;4597;48.730;9.114;2023-07-31T00:24:02;2.20;;;1.40;;
9124;SDS011;4597;48.730;9.114;2023-07-31T00:26:27;1.60;;;1.23;;
9124;SDS011;4597;48.730;9.114;2023-07-31T00:28:53;1.37;;;1.27;;
9124;SDS011;4597;48.730;9.114;2023-07-31T00:31:18;1.80;;;1.70;;
9124;SDS011;4597;48.730;9.114;2023-07-31T00:33:44;2.17;;;1.57;;
9124;SDS011;4597;48.730;9.114;2023-07-31T00:36:09;1.50;;;1.40;;
9124;SDS011;4597;48.730;9.114;2023-07-31T00:38:35;2.47;;;1.27;;
9124;SDS011;4597;48.730;9.114;2023-07-31T00:41:00;1.70;;;1.30;;
9124;SDS011;4597;48.730;9.114;2023-07-31T00:43:26;1.80;;;1.40;;
9124;SDS011;4597;48.730;9.114;2023-07-31T00:45:51;2.60;;;1.70;;
9124;SDS011;4597;48.730;9.114;2023-07-31T00:48:17;2.23;;;1.97;;
9124;SDS011;4597;48.730;9.114;2023-07-31T00:50:42;1.50;;;1.40;;
9124;SDS011;4597;48.730;9.114;2023-07-31T00:53:08;1.67;;;1.50;;
9124;SDS011;4597;48.730;9.114;2023-07-31T00:55:33;1.80;;;1.70;;
9124;SDS011;4597;48.730;9.114;2023-07-31T00:57:59;2.40;;;1.57;;
9124;SDS011;4597;48.730;9.114;2023-07-31T01:00:25;1.93;;;1.50;;
9124;SDS011;4597;48.730;9.114;2023-07-31T01:02:50;1.83;;;1.43;;
9124;SDS011;4597;48.730;9.114;2023-07-31T01:05:17;1.60;;;1.10;;
9124;SDS011;4597;48.730;9.114;2023-07-31T01:07:56;1.60;;;1.40;;
9124;SDS011;4597;48.730;9.114;2023-07-31T01:10:34;1.67;;;1.40;;
9124;SDS011;4597;48.730;9.114;2023-07-31T01:13:06;1.80;;;1.37;;
9124;SDS011;4597;48.730;9.114;2023-07-31T01:15:33;2.07;;;1.47;;
9124;SDS011;4597;48.730;9.114;2023-07-31T01:17:58;1.80;;;1.57;;
9124;SDS011;4597;48.730;9.114;2023-07-31T01:20:24;1.87;;;1.40;;
9124;SDS011;4597;48.730;9.114;2023-07-31T01:28:43;1.70;;;1.60;;
9124;SDS011;4597;48.730;9.114;2023-07-31T01:31:20;1.57;;;1.47;;
9124;SDS011;4597;48.730;9.114;2023-07-31T01:33:49;3.30;;;1.63;;
9124;SDS011;4597;48.730;9.114;2023-07-31T01:36:15;4.67;;;1.80;;
9124;SDS011;4597;48.730;9.114;2023-07-31T01:38:41;2.83;;;1.30;;
9124;SDS011;4597;48.730;9.114;2023-07-31T01:41:06;2.17;;;1.30;;
9124;SDS011;4597;48.730;9.114;2023-07-31T01:43:32;2.23;;;1.50;;
9124;SDS011;4597;48.730;9.114;2023-07-31T01:45:57;1.40;;;1.30;;
9124;SDS011;4597;48.730;9.114;2023-07-31T01:48:23;1.50;;;1.40;;
9124;SDS011;4597;48.730;9.114;2023-07-31T01:50:48;3.63;;;1.33;;
9124;SDS011;4597;48.730;9.114;2023-07-31T01:53:14;1.57;;;1.47;;
9124;SDS011;4597;48.730;9.114;2023-07-31T01:55:40;2.70;;;1.70;;
9124;SDS011;4597;48.730;9.114;2023-07-31T01:58:05;2.13;;;1.70;;
9124;SDS011;4597;48.730;9.114;2023-07-31T02:00:31;3.27;;;1.70;;
9124;SDS011;4597;48.730;9.114;2023-07-31T02:02:56;2.97;;;1.33;;
9124;SDS011;4597;48.730;9.114;2023-07-31T02:05:22;1.40;;;1.30;;
9124;SDS011;4597;48.730;9.114;2023-07-31T02:07:47;2.13;;;1.70;;
9124;SDS011;4597;48.730;9.114;2023-07-31T02:10:13;1.83;;;1.73;;
9124;SDS011;4597;48.730;9.114;2023-07-31T02:12:38;1.70;;;1.27;;
9124;SDS011;4597;48.730;9.114;2023-07-31T02:15:04;1.47;;;1.37;;
9124;SDS011;4597;48.730;9.114;2023-07-31T02:17:30;3.10;;;1.50;;
9124;SDS011;4597;48.730;9.114;2023-07-31T02:19:55;1.43;;;1.33;;
9124;SDS011;4597;48.730;9.114;2023-07-31T02:22:21;2.40;;;1.50;;
9124;SDS011;4597;48.730;9.114;2023-07-31T02:24:46;1.70;;;1.60;;
9124;SDS011;4597;48.730;9.114;2023-07-31T02:27:12;1.73;;;1.57;;
9124;SDS011;4597;48.730;9.114;2023-07-31T02:29:37;1.70;;;1.60;;
9124;SDS011;4597;48.730;9.114;2023-07-31T02:32:03;1.53;;;1.30;;
9124;SDS011;4597;48.730;9.114;2023-07-31T02:34:28;3.17;;;1.40;;
9124;SDS011;4597;48.730;9.114;2023-07-31T02:36:54;1.40;;;1.30;;
9124;SDS011;4597;48.730;9.114;2023-07-31T02:39:19;1.77;;;1.60;;
9124;SDS011;4597;48.730;9.114;2023-07-31T02:41:45;1.40;;;1.30;;
9124;SDS011;4597;48.730;9.114;2023-07-31T02:44:11;1.57;;;1.33;;
9124;SDS011;4597;48.730;9.114;2023-07-31T02:46:39;2.87;;;1.63;;
9124;SDS011;4597;48.730;9.114;2023-07-31T02:49:05;1.87;;;1.70;;
9124;SDS011;4597;48.730;9.114;2023-07-31T02:51:30;1.90;;;1.70;;
9124;SDS011;4597;48.730;9.114;2023-07-31T02:53:56;1.97;;;1.50;;
9124;SDS011;4597;48.730;9.114;2023-07-31T02:56:21;1.60;;;1.50;;
9124;SDS011;4597;48.730;9.114;2023-07-31T02:58:47;2.67;;;1.60;;
9124;SDS011;4597;48.730;9.114;2023-07-31T03:01:12;2.53;;;1.70;;
9124;SDS011;4597;48.730;9.114;2023-07-31T03:03:38;2.00;;;1.57;;
9124;SDS011;4597;48.730;9.114;2023-07-31T03:06:03;1.60;;;1.50;;
9124;SDS011;4597;48.730;9.114;2023-07-31T03:08:29;1.60;;;1.50;;
9124;SDS011;4597;48.730;9.114;2023-07-31T03:10:54;1.63;;;1.50;;
9124;SDS011;4597;48.730;9.114;2023-07-31T03:13:21;2.70;;;1.33;;
9124;SDS011;4597;48.730;9.114;2023-07-31T03:15:47;2.03;;;1.43;;
9124;SDS011;4597;48.730;9.114;2023-07-31T03:18:12;1.57;;;1.47;;
9124;SDS011;4597;48.730;9.114;2023-07-31T03:20:41;1.20;;;1.20;;
9124;SDS011;4597;48.730;9.114;2023-07-31T03:23:08;1.70;;;1.40;;
9124;SDS011;4597;48.730;9.114;2023-07-31T03:25:34;2.50;;;1.50;;
9124;SDS011;4597;48.730;9.114;2023-07-31T03:27:59;1.70;;;1.53;;
9124;SDS011;4597;48.730;9.114;2023-07-31T03:30:25;2.27;;;1.50;;
9124;SDS011;4597;48.730;9.114;2023-07-31T03:32:50;3.17;;;1.90;;
9124;SDS011;4597;48.730;9.114;2023-07-31T03:35:16;1.90;;;1.80;;
9124;SDS011;4597;48.730;9.114;2023-07-31T03:37:41;1.67;;;1.57;;
9124;SDS011;4597;48.730;9.114;2023-07-31T03:40:07;2.73;;;1.50;;
9124;SDS011;4597;48.730;9.114;2023-07-31T03:42:33;1.47;;;1.43;;
9124;SDS011;4597;48.730;9.114;2023-07-31T03:44:59;1.90;;;1.60;;
9124;SDS011;4597;48.730;9.114;2023-07-31T03:47:24;1.57;;;1.40;;
9124;SDS011;4597;48.730;9.114;2023-07-31T03:49:50;1.60;;;1.50;;
9124;SDS011;4597;48.730;9.114;2023-07-31T03:52:15;1.73;;;1.60;;
9124;SDS011;4597;48.730;9.114;2023-07-31T03:54:41;1.73;;;1.63;;
9124;SDS011;4597;48.730;9.114;2023-07-31T03:57:06;2.73;;;1.60;;
9124;SDS011;4597;48.730;9.114;2023-07-31T03:59:31;2.33;;;1.60;;
9124;SDS011;4597;48.730;9.114;2023-07-31T04:01:57;1.70;;;1.53;;
9124;SDS011;4597;48.730;9.114;2023-07-31T04:04:22;3.90;;;1.77;;
9124;SDS011;4597;48.730;9.114;2023-07-31T04:06:48;4.10;;;1.67;;
9124;SDS011;4597;48.730;9.114;2023-07-31T04:09:13;2.97;;;1.73;;
9124;SDS011;4597;48.730;9.114;2023-07-31T04:11:39;1.87;;;1.50;;
9124;SDS011;4597;48.730;9.114;2023-07-31T04:14:04;2.90;;;1.77;;
9124;SDS011;4597;48.730;9.114;2023-07-31T04:16:30;2.27;;;1.83;;
9124;SDS011;4597;48.730;9.114;2023-07-31T04:18:55;3.77;;;1.57;;
9124;SDS011;4597;48.730;9.114;2023-07-31T04:21:21;1.63;;;1.40;;
9124;SDS011;4597;48.730;9.114;2023-07-31T04:23:46;1.53;;;1.43;;
9124;SDS011;4597;48.730;9.114;2023-07-31T04:26:12;1.50;;;1.40;;
9124;SDS011;4597;48.730;9.114;2023-07-31T04:28:37;1.70;;;1.50;;
9124;SDS011;4597;48.730;9.114;2023-07-31T04:31:03;2.47;;;1.67;;
9124;SDS011;4597;48.730;9.114;2023-07-31T04:33:29;2.53;;;2.00;;
9124;SDS011;4597;48.730;9.114;2023-07-31T04:35:54;1.97;;;1.60;;
9124;SDS011;4597;48.730;9.114;2023-07-31T04:38:20;2.17;;;1.77;;
9124;SDS011;4597;48.730;9.114;2023-07-31T04:40:46;1.40;;;1.30;;
9124;SDS011;4597;48.730;9.114;2023-07-31T04:43:12;1.80;;;1.70;;
9124;SDS011;4597;48.730;9.114;2023-07-31T04:45:37;1.70;;;1.60;;
9124;SDS011;4597;48.730;9.114;2023-07-31T04:48:03;1.70;;;1.60;;
9124;SDS011;4597;48.730;9.114;2023-07-31T04:50:29;1.97;;;1.53;;
9124;SDS011;4597;48.730;9.114;2023-07-31T04:52:56;2.80;;;1.87;;
9124;SDS011;4597;48.730;9.114;2023-07-31T04:55:22;2.63;;;1.80;;
9124;SDS011;4597;48.730;9.114;2023-07-31T04:57:47;1.97;;;1.60;;
9124;SDS011;4597;48.730;9.114;2023-07-31T05:00:13;2.13;;;1.53;;
9124;SDS011;4597;48.730;9.114;2023-07-31T05:02:38;1.60;;;1.50;;
9124;SDS011;4597;48.730;9.114;2023-07-31T05:05:04;4.83;;;1.93;;
9124;SDS011;4597;48.730;9.114;2023-07-31T05:07:29;3.57;;;1.80;;
9124;SDS011;4597;48.730;9.114;2023-07-31T05:09:55;1.77;;;1.67;;
9124;SDS011;4597;48.730;9.114;2023-07-31T05:12:20;2.07;;;1.70;;
9124;SDS011;4597;48.730;9.114;2023-07-31T05:14:46;2.20;;;1.70;;
9124;SDS011;4597;48.730;9.114;2023-07-31T05:17:11;2.30;;;1.80;;
9124;SDS011;4597;48.730;9.114;2023-07-31T05:19:37;2.13;;;1.60;;
9124;SDS011;4597;48.730;9.114;2023-07-31T05:22:03;1.63;;;1.50;;
9124;SDS011;4597;48.730;9.114;2023-07-31T05:24:28;1.87;;;1.60;;
9124;SDS011;4597;48.730;9.114;2023-07-31T05:26:54;2.00;;;1.90;;
9124;SDS011;4597;48.730;9.114;2023-07-31T05:29:20;1.90;;;1.80;;
9124;SDS011;4597;48.730;9.114;2023-07-31T05:31:45;3.20;;;2.23;;
9124;SDS011;4597;48.730;9.114;2023-07-31T05:34:11;1.70;;;1.60;;
9124;SDS011;4597;48.730;9.114;2023-07-31T05:36:36;2.60;;;1.97;;
9124;SDS011;4597;48.730;9.114;2023-07-31T05:39:02;3.23;;;1.70;;
9124;SDS011;4597;48.730;9.114;2023-07-31T05:41:32;2.97;;;1.67;;
9124;SDS011;4597;48.730;9.114;2023-07-31T05:43:57;2.67;;;1.73;;
9124;SDS011;4597;48.730;9.114;2023-07-31T05:46:23;2.80;;;1.70;;
9124;SDS011;4597;48.730;9.114;2023-07-31T05:48:48;2.50;;;2.03;;
9124;SDS011;4597;48.730;9.114;2023-07-31T05:51:13;3.30;;;2.07;;
9124;SDS011;4597;48.730;9.114;2023-07-31T05:53:39;2.97;;;1.80;;
9124;SDS011;4597;48.730;9.114;2023-07-31T05:56:05;3.40;;;1.67;;
9124;SDS011;4597;48.730;9.114;2023-07-31T05:58:31;2.23;;;2.00;;
9124;SDS011;4597;48.730;9.114;2023-07-31T06:00:57;1.60;;;1.60;;
9124;SDS011;4597;48.730;9.114;2023-07-31T06:03:22;1.53;;;1.53;;
9124;SDS011;4597;48.730;9.114;2023-07-31T06:05:48;1.80;;;1.50;;
9124;SDS011;4597;48.730;9.114;2023-07-31T06:08:13;1.80;;;1.70;;
9124;SDS011;4597;48.730;9.114;2023-07-31T06:10:39;1.93;;;1.70;;
9124;SDS011;4597;48.730;9.114;2023-07-31T06:13:04;4.63;;;1.80;;
9124;SDS011;4597;48.730;9.114;2023-07-31T06:15:30;1.73;;;1.63;;
9124;SDS011;4597;48.730;9.114;2023-07-31T06:17:55;2.93;;;1.90;;
9124;SDS011;4597;48.730;9.114;2023-07-31T06:20:22;1.57;;;1.47;;
9124;SDS011;4597;48.730;9.114;2023-07-31T06:22:48;2.17;;;2.07;;
9124;SDS011;4597;48.730;9.114;2023-07-31T06:25:13;1.93;;;1.83;;
9124;SDS011;4597;48.730;9.114;2023-07-31T06:27:39;1.63;;;1.53;;
9124;SDS011;4597;48.730;9.114;2023-07-31T06:30:04;2.53;;;2.03;;
9124;SDS011;4597;48.730;9.114;2023-07-31T06:32:30;2.50;;;2.00;;
9124;SDS011;4597;48.730;9.114;2023-07-31T06:34:56;2.10;;;1.90;;
9124;SDS011;4597;48.730;9.114;2023-07-31T06:37:21;2.00;;;1.87;;
9124;SDS011;4597;48.730;9.114;2023-07-31T06:39:47;2.60;;;1.87;;
9124;SDS011;4597;48.730;9.114;2023-07-31T06:42:13;3.40;;;1.90;;
9124;SDS011;4597;48.730;9.114;2023-07-31T06:44:39;1.83;;;1.73;;
9124;SDS011;4597;48.730;9.114;2023-07-31T06:47:04;2.20;;;2.00;;
9124;SDS011;4597;48.730;9.114;2023-07-31T06:49:30;2.83;;;2.00;;
9124;SDS011;4597;48.730;9.114;2023-07-31T06:51:55;2.23;;;1.73;;
9124;SDS011;4597;48.730;9.114;2023-07-31T06:54:21;1.90;;;1.80;;
9124;SDS011;4597;48.730;9.114;2023-07-31T06:56:47;1.70;;;1.60;;
9124;SDS011;4597;48.730;9.114;2023-07-31T06:59:12;2.37;;;1.77;;
9124;SDS011;4597;48.730;9.114;2023-07-31T07:01:38;2.17;;;1.90;;
9124;SDS011;4597;48.730;9.114;2023-07-31T07:04:03;4.03;;;2.00;;
9124;SDS011;4597;48.730;9.114;2023-07-31T07:06:29;1.77;;;1.60;;
9124;SDS011;4597;48.730;9.114;2023-07-31T07:08:54;3.23;;;1.67;;
9124;SDS011;4597;48.730;9.114;2023-07-31T07:11:20;4.20;;;1.87;;
9124;SDS011;4597;48.730;9.114;2023-07-31T07:13:45;2.73;;;2.17;;
9124;SDS011;4597;48.730;9.114;2023-07-31T07:16:11;1.93;;;1.47;;
9124;SDS011;4597;48.730;9.114;2023-07-31T07:18:36;2.77;;;1.80;;
9124;SDS011;4597;48.730;9.114;2023-07-31T07:21:02;1.57;;;1.47;;
9124;SDS011;4597;48.730;9.114;2023-07-31T07:23:27;2.20;;;2.00;;
9124;SDS011;4597;48.730;9.114;2023-07-31T07:25:53;2.00;;;1.87;;
9124;SDS011;4597;48.730;9.114;2023-07-31T07:28:18;2.93;;;1.90;;
9124;SDS011;4597;48.730;9.114;2023-07-31T07:30:44;2.83;;;1.87;;
9124;SDS011;4597;48.730;9.114;2023-07-31T07:33:09;2.10;;;1.60;;
9124;SDS011;4597;48.730;9.114;2023-07-31T07:35:35;1.60;;;1.50;;
9124;SDS011;4597;48.730;9.114;2023-07-31T07:38:02;1.90;;;1.67;;
9124;SDS011;4597;48.730;9.114;2023-07-31T07:40:27;2.47;;;1.60;;
9124;SDS011;4597;48.730;9.114;2023-07-31T07:42:53;1.70;;;1.60;;
9124;SDS011;4597;48.730;9.114;2023-07-31T07:45:19;3.30;;;1.70;;
9124;SDS011;4597;48.730;9.114;2023-07-31T07:47:44;2.20;;;1.70;;
9124;SDS011;4597;48.730;9.114;2023-07-31T07:50:09;3.20;;;1.90;;
9124;SDS011;4597;48.730;9.114;2023-07-31T07:52:35;3.97;;;1.90;;
9124;SDS011;4597;48.730;9.114;2023-07-31T07:55:00;2.00;;;1.80;;
9124;SDS011;4597;48.730;9.114;2023-07-31T07:57:26;2.03;;;1.80;;
9124;SDS011;4597;48.730;9.114;2023-07-31T07:59:52;2.10;;;1.80;;
9124;SDS011;4597;48.730;9.114;2023-07-31T08:02:18;2.93;;;1.93;;
9124;SDS011;4597;48.730;9.114;2023-07-31T08:04:43;2.70;;;2.03;;
9124;SDS011;4597;48.730;9.114;2023-07-31T08:07:12;2.60;;;2.00;;
9124;SDS011;4597;48.730;9.114;2023-07-31T08:09:38;4.23;;;2.30;;
9124;SDS011;4597;48.730;9.114;2023-07-31T08:12:04;1.83;;;1.73;;
9124;SDS011;4597;48.730;9.114;2023-07-31T08:14:30;1.90;;;1.80;;
9124;SDS011;4597;48.730;9.114;2023-07-31T08:16:56;1.93;;;1.83;;
9124;SDS011;4597;48.730;9.114;2023-07-31T08:19:21;3.47;;;2.13;;
9124;SDS011;4597;48.730;9.114;2023-07-31T08:21:47;2.93;;;2.03;;
9124;SDS011;4597;48.730;9.114;2023-07-31T08:24:12;2.13;;;1.70;;
9124;SDS011;4597;48.730;9.114;2023-07-31T08:26:38;2.17;;;1.97;;
9124;SDS011;4597;48.730;9.114;2023-07-31T08:29:03;2.80;;;1.90;;
9124;SDS011;4597;48.730;9.114;2023-07-31T08:31:29;1.93;;;1.80;;
9124;SDS011;4597;48.730;9.114;2023-07-31T08:33:55;2.53;;;1.80;;
9124;SDS011;4597;48.730;9.114;2023-07-31T08:36:21;3.80;;;2.30;;
9124;SDS011;4597;48.730;9.114;2023-07-31T08:38:47;3.63;;;1.90;;
9124;SDS011;4597;48.730;9.114;2023-07-31T08:41:12;2.60;;;2.03;;
9124;SDS011;4597;48.730;9.114;2023-07-31T08:43:38;2.60;;;2.40;;
9124;SDS011;4597;48.730;9.114;2023-07-31T08:46:04;3.60;;;2.13;;
9124;SDS011;4597;48.730;9.114;2023-07-31T08:48:30;4.13;;;2.40;;
9124;SDS011;4597;48.730;9.114;2023-07-31T08:50:57;1.73;;;1.63;;
9124;SDS011;4597;48.730;9.114;2023-07-31T08:53:23;2.43;;;1.87;;
9124;SDS011;4597;48.730;9.114;2023-07-31T08:55:49;2.30;;;1.80;;
9124;SDS011;4597;48.730;9.114;2023-07-31T08:58:15;2.23;;;2.03;;
9124;SDS011;4597;48.730;9.114;2023-07-31T09:00:42;2.27;;;2.07;;
9124;SDS011;4597;48.730;9.114;2023-07-31T09:03:10;2.60;;;2.23;;
9124;SDS011;4597;48.730;9.114;2023-07-31T09:05:40;2.73;;;1.67;;
9124;SDS011;4597;48.730;9.114;2023-07-31T09:08:09;2.27;;;2.10;;
9124;SDS011;4597;48.730;9.114;2023-07-31T09:10:36;2.80;;;2.10;;
9124;SDS011;4597;48.730;9.114;2023-07-31T09:13:09;4.77;;;2.00;;
9124;SDS011;4597;48.730;9.114;2023-07-31T09:15:35;2.30;;;2.10;;
9124;SDS011;4597;48.730;9.114;2023-07-31T09:18:02;2.10;;;1.90;;
9124;SDS011;4597;48.730;9.114;2023-07-31T09:20:29;2.50;;;2.27;;
9124;SDS011;4597;48.730;9.114;2023-07-31T09:22:56;4.30;;;2.37;;
9124;SDS011;4597;48.730;9.114;2023-07-31T09:25:29;2.57;;;2.13;;
9124;SDS011;4597;48.730;9.114;2023-07-31T09:27:59;2.40;;;2.20;;
9124;SDS011;4597;48.730;9.114;2023-07-31T09:30:25;3.90;;;1.93;;
9124;SDS011;4597;48.730;9.114;2023-07-31T09:32:59;2.10;;;1.90;;
9124;SDS011;4597;48.730;9.114;2023-07-31T09:35:32;2.53;;;1.97;;
9124;SDS011;4597;48.730;9.114;2023-07-31T09:38:09;2.83;;;2.30;;
9124;SDS011;4597;48.730;9.114;2023-07-31T09:40:36;2.73;;;1.90;;
9124;SDS011;4597;48.730;9.114;2023-07-31T09:43:12;2.00;;;1.90;;
9124;SDS011;4597;48.730;9.114;2023-07-31T09:45:42;2.27;;;2.07;;
9124;SDS011;4597;48.730;9.114;2023-07-31T09:48:10;2.70;;;2.20;;
9124;SDS011;4597;48.730;9.114;2023-07-31T09:50:40;2.47;;;2.27;;
9124;SDS011;4597;48.730;9.114;2023-07-31T09:53:08;3.40;;;2.43;;
9124;SDS011;4597;48.730;9.114;2023-07-31T09:55:35;3.03;;;1.93;;
9124;SDS011;4597;48.730;9.114;2023-07-31T09:58:06;2.20;;;2.00;;
9124;SDS011;4597;48.730;9.114;2023-07-31T10:00:33;2.40;;;2.20;;
9124;SDS011;4597;48.730;9.114;2023-07-31T10:03:00;2.30;;;2.10;;
9124;SDS011;4597;48.730;9.114;2023-07-31T10:05:30;3.53;;;2.40;;
9124;SDS011;4597;48.730;9.114;2023-07-31T10:07:59;3.80;;;2.37;;
9124;SDS011;4597;48.730;9.114;2023-07-31T10:10:25;2.73;;;2.23;;
9124;SDS011;4597;48.730;9.114;2023-07-31T10:12:53;2.27;;;2.00;;
9124;SDS011;4597;48.730;9.114;2023-07-31T10:15:19;4.40;;;2.37;;
9124;SDS011;4597;48.730;9.114;2023-07-31T10:17:48;1.90;;;1.80;;
9124;SDS011;4597;48.730;9.114;2023-07-31T10:20:15;2.90;;;2.10;;
9124;SDS011;4597;48.730;9.114;2023-07-31T10:22:41;2.13;;;1.93;;
9124;SDS011;4597;48.730;9.114;2023-07-31T10:25:08;3.90;;;2.50;;
9124;SDS011;4597;48.730;9.114;2023-07-31T10:27:38;2.70;;;2.30;;
9124;SDS011;4597;48.730;9.114;2023-07-31T10:30:04;5.00;;;2.63;;
9124;SDS011;4597;48.730;9.114;2023-07-31T10:32:32;3.50;;;2.30;;
9124;SDS011;4597;48.730;9.114;2023-07-31T10:34:58;3.53;;;2.60;;
9124;SDS011;4597;48.730;9.114;2023-07-31T10:37:29;3.80;;;2.20;;
9124;SDS011;4597;48.730;9.114;2023-07-31T10:40:05;2.47;;;2.27;;
9124;SDS011;4597;48.730;9.114;2023-07-31T10:42:35;3.27;;;2.57;;
9124;SDS011;4597;48.730;9.114;2023-07-31T10:45:03;3.57;;;2.10;;
9124;SDS011;4597;48.730;9.114;2023-07-31T10:47:30;4.97;;;2.60;;
9124;SDS011;4597;48.730;9.114;2023-07-31T10:52:44;3.20;;;2.20;;
9124;SDS011;4597;48.730;9.114;2023-07-31T10:55:15;2.43;;;2.23;;
9124;SDS011;4597;48.730;9.114;2023-07-31T10:58:10;4.70;;;2.67;;
9124;SDS011;4597;48.730;9.114;2023-07-31T11:00:38;3.80;;;2.30;;
9124;SDS011;4597;48.730;9.114;2023-07-31T11:03:08;4.50;;;2.43;;
9124;SDS011;4597;48.730;9.114;2023-07-31T11:08:15;3.27;;;2.70;;
9124;SDS011;4597;48.730;9.114;2023-07-31T11:10:46;4.00;;;2.83;;
9124;SDS011;4597;48.730;9.114;2023-07-31T11:13:13;3.00;;;2.63;;
9124;SDS011;4597;48.730;9.114;2023-07-31T11:15:39;2.67;;;2.37;;
9124;SDS011;4597;48.730;9.114;2023-07-31T11:18:05;2.67;;;2.43;;
9124;SDS011;4597;48.730;9.114;2023-07-31T11:20:33;3.73;;;2.40;;
9124;SDS011;4597;48.730;9.114;2023-07-31T11:23:07;3.23;;;2.50;;
9124;SDS011;4597;48.730;9.114;2023-07-31T11:25:34;3.40;;;2.60;;
9124;SDS011;4597;48.730;9.114;2023-07-31T11:28:06;2.80;;;2.60;;
9124;SDS011;4597;48.730;9.114;2023-07-31T11:30:33;4.97;;;2.57;;
9124;SDS011;4597;48.730;9.114;2023-07-31T11:33:04;4.43;;;2.80;;
9124;SDS011;4597;48.730;9.114;2023-07-31T11:35:34;2.80;;;2.60;;
9124;SDS011;4597;48.730;9.114;2023-07-31T11:38:10;2.60;;;2.17;;
9124;SDS011;4597;48.730;9.114;2023-07-31T11:41:03;3.03;;;2.13;;
9124;SDS011;4597;48.730;9.114;2023-07-31T11:43:29;2.63;;;2.43;;
9124;SDS011;4597;48.730;9.114;2023-07-31T11:45:58;4.03;;;2.50;;
9124;SDS011;4597;48.730;9.114;2023-07-31T11:48:28;2.87;;;2.60;;
9124;SDS011;4597;48.730;9.114;2023-07-31T11:51:04;2.97;;;2.10;;
9124;SDS011;4597;48.730;9.114;2023-07-31T11:53:38;2.70;;;2.33;;
9124;SDS011;4597;48.730;9.114;2023-07-31T11:56:05;2.60;;;2.40;;
9124;SDS011;4597;48.730;9.114;2023-07-31T11:58:32;4.57;;;2.43;;
9124;SDS011;4597;48.730;9.114;2023-07-31T12:00:59;2.42;;;2.22;;
9124;SDS011;4597;48.730;9.114;2023-07-31T12:03:26;3.60;;;2.23;;
9124;SDS011;4597;48.730;9.114;2023-07-31T12:05:55;2.38;;;2.17;;
9124;SDS011;4597;48.730;9.114;2023-07-31T12:08:21;2.77;;;2.50;;
9124;SDS011;4597;48.730;9.114;2023-07-31T12:10:50;2.63;;;2.42;;
9124;SDS011;4597;48.730;9.114;2023-07-31T12:13:34;2.40;;;2.30;;
9124;SDS011;4597;48.730;9.114;2023-07-31T12:16:00;3.05;;;2.08;;
9124;SDS011;4597;48.730;9.114;2023-07-31T12:18:28;3.05;;;2.40;;
9124;SDS011;4597;48.730;9.114;2023-07-31T12:21:00;3.53;;;2.38;;
9124;SDS011;4597;48.730;9.114;2023-07-31T12:23:33;2.70;;;2.38;;
9124;SDS011;4597;48.730;9.114;2023-07-31T12:26:04;3.90;;;2.23;;
9124;SDS011;4597;48.730;9.114;2023-07-31T12:28:41;3.58;;;2.42;;
9124;SDS011;4597;48.730;9.114;2023-07-31T12:31:09;2.85;;;2.45;;
9124;SDS011;4597;48.730;9.114;2023-07-31T12:33:37;2.60;;;2.43;;
9124;SDS011;4597;48.730;9.114;2023-07-31T12:36:04;3.05;;;2.65;;
9124;SDS011;4597;48.730;9.114;2023-07-31T12:38:32;2.60;;;2.30;;
9124;SDS011;4597;48.730;9.114;2023-07-31T12:40:58;2.55;;;2.35;;
9124;SDS011;4597;48.730;9.114;2023-07-31T12:43:23;3.40;;;2.58;;
9124;SDS011;4597;48.730;9.114;2023-07-31T12:45:49;3.67;;;2.70;;
9124;SDS011;4597;48.730;9.114;2023-07-31T12:48:14;3.72;;;2.60;;
9124;SDS011;4597;48.730;9.114;2023-07-31T12:50:40;2.20;;;2.08;;
9124;SDS011;4597;48.730;9.114;2023-07-31T12:53:05;4.20;;;2.20;;
9124;SDS011;4597;48.730;9.114;2023-07-31T12:55:31;4.00;;;2.40;;
9124;SDS011;4597;48.730;9.114;2023-07-31T12:57:59;3.67;;;2.60;;
9124;SDS011;4597;48.730;9.114;2023-07-31T13:00:28;2.95;;;2.33;;
9124;SDS011;4597;48.730;9.114;2023-07-31T13:02:53;2.50;;;2.30;;
9124;SDS011;4597;48.730;9.114;2023-07-31T13:05:19;5.97;;;2.78;;
9124;SDS011;4597;48.730;9.114;2023-07-31T13:07:45;3.47;;;2.22;;
9124;SDS011;4597;48.730;9.114;2023-07-31T13:10:11;6.03;;;2.60;;
9124;SDS011;4597;48.730;9.114;2023-07-31T13:12:37;3.55;;;2.38;;
9124;SDS011;4597;48.730;9.114;2023-07-31T13:15:03;2.47;;;2.20;;
9124;SDS011;4597;48.730;9.114;2023-07-31T13:17:30;4.53;;;2.65;;
9124;SDS011;4597;48.730;9.114;2023-07-31T13:19:55;3.17;;;2.40;;
9124;SDS011;4597;48.730;9.114;2023-07-31T13:22:21;4.03;;;2.37;;
9124;SDS011;4597;48.730;9.114;2023-07-31T13:24:46;3.95;;;2.80;;
9124;SDS011;4597;48.730;9.114;2023-07-31T13:27:12;3.05;;;2.03;;
9124;SDS011;4597;48.730;9.114;2023-07-31T13:29:38;3.33;;;2.20;;
9124;SDS011;4597;48.730;9.114;2023-07-31T13:32:04;5.22;;;2.17;;
9124;SDS011;4597;48.730;9.114;2023-07-31T13:34:30;2.80;;;2.20;;
9124;SDS011;4597;48.730;9.114;2023-07-31T13:36:55;3.25;;;2.45;;
9124;SDS011;4597;48.730;9.114;2023-07-31T13:39:21;2.35;;;2.20;;
9124;SDS011;4597;48.730;9.114;2023-07-31T13:41:47;2.45;;;2.25;;
9124;SDS011;4597;48.730;9.114;2023-07-31T13:44:12;3.00;;;2.40;;
9124;SDS011;4597;48.730;9.114;2023-07-31T13:46:39;2.83;;;2.63;;
9124;SDS011;4597;48.730;9.114;2023-07-31T13:49:04;4.45;;;2.60;;
9124;SDS011;4597;48.730;9.114;2023-07-31T13:51:30;2.78;;;2.38;;
9124;SDS011;4597;48.730;9.114;2023-07-31T13:53:55;2.63;;;2.20;;
9124;SDS011;4597;48.730;9.114;2023-07-31T13:56:21;2.47;;;2.28;;
9124;SDS011;4597;48.730;9.114;2023-07-31T13:58:46;2.97;;;2.27;;
9124;SDS011;4597;48.730;9.114;2023-07-31T14:01:12;2.50;;;2.30;;
9124;SDS011;4597;48.730;9.114;2023-07-31T14:03:37;4.17;;;2.23;;
9124;SDS011;4597;48.730;9.114;2023-07-31T14:06:03;4.40;;;2.13;;
9124;SDS011;4597;48.730;9.114;2023-07-31T14:08:29;3.70;;;2.28;;
9124;SDS011;4597;48.730;9.114;2023-07-31T14:10:55;4.10;;;2.20;;
9124;SDS011;4597;48.730;9.114;2023-07-31T14:13:20;6.20;;;2.73;;
9124;SDS011;4597;48.730;9.114;2023-07-31T14:15:46;2.58;;;2.38;;
9124;SDS011;4597;48.730;9.114;2023-07-31T14:18:12;2.38;;;2.10;;
9124;SDS011;4597;48.730;9.114;2023-07-31T14:20:37;3.77;;;2.20;;
9124;SDS011;4597;48.730;9.114;2023-07-31T14:23:03;2.95;;;2.40;;
9124;SDS011;4597;48.730;9.114;2023-07-31T14:25:28;2.55;;;2.22;;
9124;SDS011;4597;48.730;9.114;2023-07-31T14:27:54;2.47;;;1.88;;
9124;SDS011;4597;48.730;9.114;2023-07-31T14:30:19;2.80;;;2.47;;
9124;SDS011;4597;48.730;9.114;2023-07-31T14:32:45;2.63;;;2.10;;
9124;SDS011;4597;48.730;9.114;2023-07-31T14:35:11;2.42;;;1.90;;
9124;SDS011;4597;48.730;9.114;2023-07-31T14:37:37;2.17;;;2.05;;
9124;SDS011;4597;48.730;9.114;2023-07-31T14:40:07;2.53;;;2.33;;
9124;SDS011;4597;48.730;9.114;2023-07-31T14:42:34;2.72;;;2.03;;
9124;SDS011;4597;48.730;9.114;2023-07-31T14:45:00;2.25;;;2.05;;
9124;SDS011;4597;48.730;9.114;2023-07-31T14:47:27;3.28;;;2.22;;
9124;SDS011;4597;48.730;9.114;2023-07-31T14:49:52;3.08;;;2.70;;
9124;SDS011;4597;48.730;9.114;2023-07-31T14:52:18;2.20;;;2.10;;
9124;SDS011;4597;48.730;9.114;2023-07-31T14:54:43;3.17;;;2.38;;
9124;SDS011;4597;48.730;9.114;2023-07-31T14:57:10;4.17;;;2.33;;
9124;SDS011;4597;48.730;9.114;2023-07-31T14:59:35;3.08;;;2.88;;
9124;SDS011;4597;48.730;9.114;2023-07-31T15:02:01;2.90;;;2.20;;
9124;SDS011;4597;48.730;9.114;2023-07-31T15:04:26;3.20;;;2.40;;
9124;SDS011;4597;48.730;9.114;2023-07-31T15:06:52;2.60;;;2.40;;
9124;SDS011;4597;48.730;9.114;2023-07-31T15:09:18;2.55;;;2.35;;
9124;SDS011;4597;48.730;9.114;2023-07-31T15:11:44;3.00;;;2.00;;
9124;SDS011;4597;48.730;9.114;2023-07-31T15:14:09;2.43;;;2.33;;
9124;SDS011;4597;48.730;9.114;2023-07-31T15:16:35;2.40;;;2.20;;
9124;SDS011;4597;48.730;9.114;2023-07-31T15:19:00;2.47;;;2.08;;
9124;SDS011;4597;48.730;9.114;2023-07-31T15:21:26;3.00;;;2.63;;
9124;SDS011;4597;48.730;9.114;2023-07-31T15:23:51;2.57;;;2.37;;